Time;durP1;ratioP1;P1;durP2;ratioP2;P2;SDS_P1;SDS_P2;PMS_P1;PMS_P2;Temp;Humidity;BMP_temperature;BMP_pressure;BME280_temperature;BME280_humidity;BME280_pressure;Samples;Min_cycle;Max_cycle;Signal;HPM_P1;HPM_P2
2021/07/04 00:00:22;;;;;;;3.85;3.55;;;;;;;;;;5006751;28;20206;-47
2021/07/04 00:02:51;;;;;;;4.07;3.75;;;;;;;;;;4999317;28;20177;-47
2021/07/04 00:05:18;;;;;;;3.92;3.60;;;;;;;;;;5005407;28;20196;-47
2021/07/04 00:07:44;;;;;;;3.95;3.63;;;;;;;;;;5001368;28;20172;-47
2021/07/04 00:10:11;;;;;;;3.83;3.42;;;;;;;;;;4995603;28;20453;-47
2021/07/04 00:12:38;;;;;;;3.90;3.50;;;;;;;;;;5007475;28;20560;-47
2021/07/04 00:15:08;;;;;;;4.10;3.70;;;;;;;;;;4995383;28;20196;-47
2021/07/04 00:17:34;;;;;;;4.35;3.47;;;;;;;;;;4997590;28;20215;-47
2021/07/04 00:20:01;;;;;;;4.22;3.22;;;;;;;;;;5008781;28;20317;-47
2021/07/04 00:22:27;;;;;;;3.97;3.50;;;;;;;;;;5008125;28;20192;-47
2021/07/04 00:24:53;;;;;;;4.65;3.45;;;;;;;;;;5014267;28;20175;-47
2021/07/04 00:27:18;;;;;;;3.50;3.22;;;;;;;;;;5006313;28;20544;-46
2021/07/04 00:29:44;;;;;;;4.45;3.50;;;;;;;;;;5013789;28;20180;-47
2021/07/04 00:32:10;;;;;;;4.03;3.63;;;;;;;;;;4996467;28;20184;-47
2021/07/04 00:34:36;;;;;;;3.53;3.22;;;;;;;;;;4999821;28;20220;-47
2021/07/04 00:37:02;;;;;;;4.22;3.83;;;;;;;;;;5013304;28;20856;-47
2021/07/04 00:39:29;;;;;;;3.95;3.58;;;;;;;;;;5002755;28;20212;-47
2021/07/04 00:41:55;;;;;;;4.40;3.50;;;;;;;;;;4995352;28;20196;-47
2021/07/04 00:44:21;;;;;;;4.88;3.40;;;;;;;;;;5013508;28;20560;-47
2021/07/04 00:46:47;;;;;;;3.17;2.88;;;;;;;;;;5013848;28;20592;-47
2021/07/04 00:49:13;;;;;;;3.50;3.20;;;;;;;;;;5008502;28;20197;-47
2021/07/04 00:51:39;;;;;;;5.05;3.58;;;;;;;;;;5013916;28;20184;-47
2021/07/04 00:54:05;;;;;;;3.38;3.10;;;;;;;;;;5013976;28;20227;-47
2021/07/04 00:56:31;;;;;;;3.70;3.40;;;;;;;;;;5014106;28;20188;-47
2021/07/04 00:58:57;;;;;;;4.07;3.20;;;;;;;;;;4996031;28;20177;-47
2021/07/04 01:01:23;;;;;;;3.50;3.20;;;;;;;;;;4996090;28;20619;-47
2021/07/04 01:03:49;;;;;;;3.88;3.20;;;;;;;;;;5004815;28;20200;-47
2021/07/04 01:06:15;;;;;;;3.63;3.28;;;;;;;;;;5017900;28;20539;-47
2021/07/04 01:08:41;;;;;;;3.38;3.10;;;;;;;;;;5034263;28;20181;-47
2021/07/04 01:11:07;;;;;;;3.50;3.17;;;;;;;;;;5007883;28;20892;-47
2021/07/04 01:13:33;;;;;;;3.60;3.30;;;;;;;;;;4999655;28;20192;-47
2021/07/04 01:15:59;;;;;;;3.75;3.42;;;;;;;;;;4997461;28;20430;-47
2021/07/04 01:18:25;;;;;;;3.80;3.50;;;;;;;;;;5008430;28;20201;-47
2021/07/04 01:20:52;;;;;;;3.38;3.08;;;;;;;;;;5005017;28;20285;-47
2021/07/04 01:23:18;;;;;;;3.22;2.92;;;;;;;;;;5016684;28;20188;-47
2021/07/04 01:25:54;;;;;;;3.25;2.95;;;;;;;;;;5014329;28;20177;-47
2021/07/04 01:28:21;;;;;;;4.05;3.10;;;;;;;;;;5000321;28;20193;-46
2021/07/04 01:30:49;;;;;;;3.58;3.28;;;;;;;;;;5011424;28;20193;-46
2021/07/04 01:33:15;;;;;;;3.30;3.00;;;;;;;;;;5000436;28;20192;-46
2021/07/04 01:35:41;;;;;;;3.60;3.30;;;;;;;;;;5007199;28;20276;-47
2021/07/04 01:38:07;;;;;;;3.47;3.22;;;;;;;;;;5014021;28;20530;-47
2021/07/04 01:40:34;;;;;;;3.47;3.15;;;;;;;;;;5005156;28;20181;-47
2021/07/04 01:43:01;;;;;;;3.33;3.13;;;;;;;;;;5006756;28;20201;-46
2021/07/04 01:45:27;;;;;;;3.28;2.97;;;;;;;;;;5001827;28;20180;-47
2021/07/04 01:47:56;;;;;;;3.35;3.05;;;;;;;;;;5013741;28;20495;-47
2021/07/04 01:50:24;;;;;;;3.65;3.00;;;;;;;;;;5007487;28;20184;-47
2021/07/04 01:52:50;;;;;;;3.13;2.70;;;;;;;;;;5004855;28;20181;-47
2021/07/04 01:55:16;;;;;;;3.53;3.08;;;;;;;;;;5010898;28;20172;-46
2021/07/04 01:57:43;;;;;;;3.40;3.10;;;;;;;;;;5013923;28;20201;-47
2021/07/04 02:00:11;;;;;;;3.40;3.05;;;;;;;;;;4999525;28;20181;-47
2021/07/04 02:02:38;;;;;;;3.17;2.88;;;;;;;;;;5005593;28;20223;-47
2021/07/04 02:05:05;;;;;;;3.47;3.13;;;;;;;;;;5008645;28;20557;-46
2021/07/04 02:07:31;;;;;;;3.78;3.40;;;;;;;;;;5031765;28;20190;-46
2021/07/04 02:09:57;;;;;;;3.33;3.10;;;;;;;;;;5023740;28;20562;-46
2021/07/04 02:12:23;;;;;;;3.40;3.10;;;;;;;;;;5000974;28;20181;-47
2021/07/04 02:14:49;;;;;;;3.25;2.95;;;;;;;;;;4997953;28;20173;-47
2021/07/04 02:17:15;;;;;;;4.00;3.10;;;;;;;;;;5008355;28;20332;-47
2021/07/04 02:19:42;;;;;;;3.97;3.10;;;;;;;;;;5012818;28;20552;-47
2021/07/04 02:22:09;;;;;;;3.30;3.10;;;;;;;;;;5003012;28;20177;-46
2021/07/04 02:24:35;;;;;;;2.90;2.70;;;;;;;;;;4997333;28;20202;-46
2021/07/04 02:27:02;;;;;;;3.08;2.80;;;;;;;;;;5014459;28;20184;-47
2021/07/04 02:29:28;;;;;;;3.40;3.10;;;;;;;;;;5017005;28;20211;-47
2021/07/04 02:31:54;;;;;;;4.40;3.33;;;;;;;;;;5014811;28;20216;-46
2021/07/04 02:34:20;;;;;;;3.25;3.00;;;;;;;;;;5001154;28;20465;-46
2021/07/04 02:36:47;;;;;;;3.35;3.05;;;;;;;;;;5014903;28;20275;-46
2021/07/04 02:39:16;;;;;;;3.13;2.85;;;;;;;;;;5016808;28;20180;-46
2021/07/04 02:41:42;;;;;;;3.30;3.00;;;;;;;;;;5016875;28;20560;-46
2021/07/04 02:44:08;;;;;;;3.65;2.88;;;;;;;;;;5000262;28;20227;-46
2021/07/04 02:46:35;;;;;;;3.00;2.80;;;;;;;;;;5006746;28;20188;-46
2021/07/04 02:49:01;;;;;;;3.45;3.15;;;;;;;;;;4998302;28;20214;-47
2021/07/04 02:51:27;;;;;;;3.22;2.92;;;;;;;;;;5007889;28;20185;-46
2021/07/04 02:53:53;;;;;;;2.97;2.67;;;;;;;;;;5002869;28;20556;-46
2021/07/04 02:56:19;;;;;;;3.65;2.58;;;;;;;;;;5015449;28;20195;-46
2021/07/04 02:58:45;;;;;;;3.03;2.83;;;;;;;;;;4996902;28;20209;-46
2021/07/04 03:01:11;;;;;;;3.25;2.67;;;;;;;;;;5013563;28;20188;-46
2021/07/04 03:03:37;;;;;;;2.70;2.50;;;;;;;;;;5006317;28;20267;-46
2021/07/04 03:06:03;;;;;;;3.15;2.90;;;;;;;;;;5003913;28;20173;-46
2021/07/04 03:08:29;;;;;;;3.15;2.80;;;;;;;;;;4998265;28;20207;-46
2021/07/04 03:10:55;;;;;;;3.03;2.78;;;;;;;;;;5010750;28;20437;-46
2021/07/04 03:13:21;;;;;;;4.68;2.80;;;;;;;;;;5003158;28;20181;-46
2021/07/04 03:15:47;;;;;;;3.13;2.92;;;;;;;;;;5014404;28;20540;-46
2021/07/04 03:18:13;;;;;;;2.80;2.60;;;;;;;;;;4998854;28;20205;-47
2021/07/04 03:20:39;;;;;;;4.20;2.95;;;;;;;;;;5004502;28;20188;-46
2021/07/04 03:23:05;;;;;;;2.85;2.65;;;;;;;;;;4997037;28;20456;-46
2021/07/04 03:25:31;;;;;;;4.10;2.88;;;;;;;;;;4996565;28;20177;-46
2021/07/04 03:27:57;;;;;;;2.72;2.53;;;;;;;;;;5011603;28;20204;-47
2021/07/04 03:30:23;;;;;;;2.90;2.70;;;;;;;;;;5015977;28;20182;-46
2021/07/04 03:32:50;;;;;;;2.95;2.70;;;;;;;;;;5011220;28;20191;-46
2021/07/04 03:35:16;;;;;;;3.03;2.83;;;;;;;;;;5008956;28;20227;-46
2021/07/04 03:37:43;;;;;;;3.10;2.80;;;;;;;;;;5011224;28;20208;-47
2021/07/04 03:40:10;;;;;;;3.22;2.92;;;;;;;;;;5009873;28;20165;-46
2021/07/04 03:42:36;;;;;;;2.90;2.70;;;;;;;;;;4995720;28;20165;-46
2021/07/04 03:45:03;;;;;;;3.75;2.58;;;;;;;;;;4995519;28;20195;-46
2021/07/04 03:47:29;;;;;;;4.95;3.08;;;;;;;;;;4995255;28;20247;-46
2021/07/04 03:49:55;;;;;;;3.05;2.85;;;;;;;;;;5001961;28;20193;-46
2021/07/04 03:52:21;;;;;;;3.00;2.70;;;;;;;;;;4995907;28;20169;-46
2021/07/04 03:54:47;;;;;;;2.75;2.53;;;;;;;;;;5015507;28;20520;-46
2021/07/04 03:57:23;;;;;;;3.00;2.70;;;;;;;;;;5013265;28;20197;-46
2021/07/04 03:59:53;;;;;;;3.17;2.97;;;;;;;;;;5015275;28;20243;-46
2021/07/04 04:02:19;;;;;;;3.15;2.92;;;;;;;;;;5005960;28;20200;-46
2021/07/04 04:04:45;;;;;;;2.85;2.60;;;;;;;;;;5009733;28;20185;-46
2021/07/04 04:07:11;;;;;;;2.90;2.70;;;;;;;;;;5001535;28;20200;-46
2021/07/04 04:09:37;;;;;;;2.95;2.60;;;;;;;;;;5012042;28;20199;-47
2021/07/04 04:12:04;;;;;;;3.53;2.70;;;;;;;;;;5009267;28;20177;-46
2021/07/04 04:14:30;;;;;;;3.03;2.83;;;;;;;;;;5015091;28;20176;-46
2021/07/04 04:16:56;;;;;;;3.17;2.85;;;;;;;;;;4998381;28;20220;-46
2021/07/04 04:19:22;;;;;;;3.22;2.60;;;;;;;;;;4997104;28;20188;-46
2021/07/04 04:21:48;;;;;;;3.13;2.92;;;;;;;;;;4996238;28;20441;-46
2021/07/04 04:24:14;;;;;;;4.10;2.75;;;;;;;;;;4994331;28;20196;-47
2021/07/04 04:26:40;;;;;;;3.90;2.90;;;;;;;;;;4994452;28;20248;-46
2021/07/04 04:29:06;;;;;;;5.88;2.97;;;;;;;;;;4998047;28;20432;-47
2021/07/04 04:31:32;;;;;;;11.57;3.42;;;;;;;;;;5011135;28;20169;-45
2021/07/04 04:33:59;;;;;;;5.78;3.00;;;;;;;;;;4996449;28;20169;-47
2021/07/04 04:36:25;;;;;;;5.18;2.80;;;;;;;;;;5005741;28;20188;-47
2021/07/04 04:38:51;;;;;;;6.10;3.03;;;;;;;;;;4996192;28;20473;-47
2021/07/04 04:41:19;;;;;;;9.32;2.70;;;;;;;;;;4995377;28;20185;-46
2021/07/04 04:43:45;;;;;;;9.88;3.08;;;;;;;;;;5008359;28;20266;-46
2021/07/04 04:46:11;;;;;;;5.07;3.15;;;;;;;;;;5003873;28;20631;-44
2021/07/04 04:48:37;;;;;;;5.63;3.03;;;;;;;;;;4995249;28;20220;-45
2021/07/04 04:51:03;;;;;;;6.22;2.90;;;;;;;;;;5004133;28;20268;-44
2021/07/04 04:53:29;;;;;;;4.65;2.78;;;;;;;;;;4995159;28;20269;-48
2021/07/04 04:55:55;;;;;;;5.95;2.90;;;;;;;;;;4998252;28;20186;-47
2021/07/04 04:58:21;;;;;;;3.38;2.58;;;;;;;;;;5012785;28;20208;-48
2021/07/04 05:00:47;;;;;;;4.80;3.00;;;;;;;;;;5014321;28;20272;-49
2021/07/04 05:03:13;;;;;;;4.63;2.92;;;;;;;;;;5011184;28;20552;-47
2021/07/04 05:05:39;;;;;;;6.60;3.53;;;;;;;;;;5000484;28;20224;-46
2021/07/04 05:08:05;;;;;;;11.80;3.53;;;;;;;;;;5004163;28;20192;-46
2021/07/04 05:10:31;;;;;;;6.65;3.20;;;;;;;;;;5021824;28;20172;-44
2021/07/04 05:12:57;;;;;;;6.30;2.70;;;;;;;;;;5019500;28;20184;-47
2021/07/04 05:15:24;;;;;;;5.75;2.83;;;;;;;;;;5003678;28;20185;-47
2021/07/04 05:17:50;;;;;;;6.38;3.10;;;;;;;;;;4994427;28;20255;-47
2021/07/04 05:20:16;;;;;;;5.70;2.70;;;;;;;;;;5005962;28;20177;-46
2021/07/04 05:22:42;;;;;;;3.35;3.05;;;;;;;;;;4996511;28;20200;-47
2021/07/04 05:25:08;;;;;;;4.70;3.17;;;;;;;;;;5006842;28;20184;-46
2021/07/04 05:27:35;;;;;;;4.03;2.60;;;;;;;;;;5002916;28;20647;-46
2021/07/04 05:30:01;;;;;;;5.88;3.10;;;;;;;;;;4994838;28;20572;-46
2021/07/04 05:32:27;;;;;;;5.07;2.90;;;;;;;;;;4994964;28;20173;-46
2021/07/04 05:34:54;;;;;;;3.88;3.13;;;;;;;;;;4997308;28;20234;-46
2021/07/04 05:37:20;;;;;;;4.90;3.22;;;;;;;;;;4998144;28;20197;-46
2021/07/04 05:39:47;;;;;;;5.05;3.33;;;;;;;;;;5002833;28;20170;-46
2021/07/04 05:42:13;;;;;;;6.40;3.38;;;;;;;;;;5017197;28;20173;-46
2021/07/04 05:44:39;;;;;;;3.40;3.10;;;;;;;;;;5017577;28;20176;-46
2021/07/04 05:47:05;;;;;;;5.22;3.35;;;;;;;;;;5017088;28;20184;-46
2021/07/04 05:49:31;;;;;;;4.90;3.03;;;;;;;;;;5011260;28;20187;-46
2021/07/04 05:51:57;;;;;;;2.92;2.72;;;;;;;;;;5014136;28;20177;-46
2021/07/04 05:54:23;;;;;;;4.10;3.20;;;;;;;;;;5003549;28;20177;-46
2021/07/04 05:56:49;;;;;;;3.22;2.92;;;;;;;;;;5014205;28;20482;-46
2021/07/04 05:59:15;;;;;;;3.55;3.25;;;;;;;;;;5021323;28;20306;-46
2021/07/04 06:01:41;;;;;;;4.13;3.00;;;;;;;;;;5013333;28;20232;-46
2021/07/04 06:04:07;;;;;;;4.65;3.35;;;;;;;;;;4997730;28;20275;-46
2021/07/04 06:06:33;;;;;;;3.20;2.90;;;;;;;;;;5008898;28;20205;-46
2021/07/04 06:08:59;;;;;;;3.35;3.03;;;;;;;;;;5016139;28;21049;-46
2021/07/04 06:11:25;;;;;;;3.15;2.80;;;;;;;;;;5019108;28;20249;-46
2021/07/04 06:13:51;;;;;;;4.25;3.00;;;;;;;;;;5007079;28;20200;-46
2021/07/04 06:16:17;;;;;;;3.22;2.75;;;;;;;;;;5012201;28;20879;-46
2021/07/04 06:18:43;;;;;;;5.88;3.33;;;;;;;;;;4997914;28;20468;-46
2021/07/04 06:21:09;;;;;;;5.13;3.13;;;;;;;;;;5008531;28;20205;-46
2021/07/04 06:23:35;;;;;;;3.20;2.90;;;;;;;;;;4997487;28;20181;-46
2021/07/04 06:26:02;;;;;;;4.63;3.10;;;;;;;;;;4996950;28;20194;-46
2021/07/04 06:28:28;;;;;;;3.38;2.97;;;;;;;;;;4997476;28;20285;-46
2021/07/04 06:30:54;;;;;;;8.43;2.95;;;;;;;;;;5008884;28;20193;-46
2021/07/04 06:33:20;;;;;;;3.22;2.90;;;;;;;;;;5017105;28;20264;-46
2021/07/04 06:35:46;;;;;;;5.70;3.00;;;;;;;;;;5008787;28;20786;-46
2021/07/04 06:38:11;;;;;;;4.88;2.85;;;;;;;;;;5010846;28;20204;-46
2021/07/04 06:40:37;;;;;;;4.53;2.90;;;;;;;;;;4999756;28;20181;-46
2021/07/04 06:43:03;;;;;;;5.18;3.50;;;;;;;;;;4997375;28;20176;-46
2021/07/04 06:45:29;;;;;;;3.75;3.13;;;;;;;;;;5003828;28;20176;-46
2021/07/04 06:47:55;;;;;;;4.80;2.92;;;;;;;;;;5016207;28;20566;-46
2021/07/04 06:50:21;;;;;;;5.25;3.30;;;;;;;;;;5007973;28;20227;-46
2021/07/04 06:52:48;;;;;;;4.07;3.70;;;;;;;;;;4997105;28;20452;-46
2021/07/04 06:55:15;;;;;;;3.88;3.15;;;;;;;;;;4996716;28;20174;-46
2021/07/04 06:57:41;;;;;;;4.38;3.40;;;;;;;;;;4996501;28;20271;-45
2021/07/04 07:00:10;;;;;;;3.65;3.22;;;;;;;;;;5007605;28;20452;-45
2021/07/04 07:02:37;;;;;;;4.60;3.20;;;;;;;;;;5036274;28;20163;-45
2021/07/04 07:05:04;;;;;;;3.67;3.33;;;;;;;;;;5008632;28;20204;-45
2021/07/04 07:07:30;;;;;;;3.53;3.22;;;;;;;;;;5004733;28;20306;-45
2021/07/04 07:09:56;;;;;;;3.92;3.00;;;;;;;;;;5016077;28;20192;-46
2021/07/04 07:12:22;;;;;;;5.35;3.30;;;;;;;;;;5000126;28;20188;-46
2021/07/04 07:14:48;;;;;;;4.47;3.47;;;;;;;;;;5006632;28;20197;-46
2021/07/04 07:17:14;;;;;;;3.60;3.30;;;;;;;;;;5012425;28;20193;-46
2021/07/04 07:19:40;;;;;;;4.68;3.83;;;;;;;;;;4997940;28;20212;-46
2021/07/04 07:22:06;;;;;;;5.20;3.95;;;;;;;;;;4996581;28;20561;-46
2021/07/04 07:24:32;;;;;;;5.28;4.07;;;;;;;;;;5003622;28;20181;-46
2021/07/04 07:26:58;;;;;;;6.32;4.45;;;;;;;;;;5009730;28;20190;-46
2021/07/04 07:29:24;;;;;;;4.70;4.30;;;;;;;;;;5007503;28;20467;-46
2021/07/04 07:31:50;;;;;;;5.50;4.80;;;;;;;;;;5006120;28;20177;-46
2021/07/04 07:34:17;;;;;;;4.40;4.00;;;;;;;;;;5001233;28;20183;-46
2021/07/04 07:36:43;;;;;;;4.55;4.15;;;;;;;;;;5004583;28;20177;-46
2021/07/04 07:39:09;;;;;;;5.75;4.43;;;;;;;;;;5015357;28;20280;-46
2021/07/04 07:41:35;;;;;;;4.70;4.30;;;;;;;;;;5000274;28;20441;-46
2021/07/04 07:44:01;;;;;;;5.22;4.72;;;;;;;;;;4996157;28;20165;-46
2021/07/04 07:46:27;;;;;;;6.57;4.40;;;;;;;;;;5007880;28;20176;-46
2021/07/04 07:48:53;;;;;;;4.43;4.03;;;;;;;;;;5012392;28;20172;-46
2021/07/04 07:51:19;;;;;;;5.43;4.93;;;;;;;;;;5012481;28;20192;-47
2021/07/04 07:53:45;;;;;;;4.82;4.10;;;;;;;;;;5004366;28;20180;-46
2021/07/04 07:56:11;;;;;;;6.63;4.80;;;;;;;;;;4996365;28;20185;-46
2021/07/04 07:58:37;;;;;;;5.07;4.68;;;;;;;;;;4995215;28;20515;-46
2021/07/04 08:01:04;;;;;;;5.07;4.57;;;;;;;;;;4997875;28;20192;-46
2021/07/04 08:03:30;;;;;;;6.82;4.50;;;;;;;;;;5009360;28;20185;-46
2021/07/04 08:05:56;;;;;;;5.43;4.40;;;;;;;;;;4996956;28;20181;-46
2021/07/04 08:08:23;;;;;;;4.82;4.43;;;;;;;;;;4996844;28;20185;-46
2021/07/04 08:10:49;;;;;;;4.65;4.25;;;;;;;;;;5006549;28;20218;-46
2021/07/04 08:13:15;;;;;;;5.68;4.68;;;;;;;;;;4998650;28;20345;-46
2021/07/04 08:15:41;;;;;;;5.15;4.65;;;;;;;;;;5013384;28;20196;-46
2021/07/04 08:18:07;;;;;;;4.95;4.55;;;;;;;;;;5014863;28;20501;-46
2021/07/04 08:20:33;;;;;;;5.28;4.78;;;;;;;;;;5003059;28;20185;-46
2021/07/04 08:22:59;;;;;;;5.15;4.40;;;;;;;;;;5015107;28;20219;-46
2021/07/04 08:25:25;;;;;;;4.75;4.32;;;;;;;;;;4996026;28;20185;-46
2021/07/04 08:27:51;;;;;;;5.45;4.07;;;;;;;;;;5003034;28;20184;-46
2021/07/04 08:30:17;;;;;;;5.18;4.68;;;;;;;;;;5002932;28;20188;-46
2021/07/04 08:32:43;;;;;;;4.82;4.43;;;;;;;;;;5030213;28;20194;-46
2021/07/04 08:35:10;;;;;;;6.60;4.80;;;;;;;;;;5007494;28;20427;-46
2021/07/04 08:37:36;;;;;;;5.78;5.18;;;;;;;;;;5002118;28;20219;-46
2021/07/04 08:40:03;;;;;;;5.10;4.60;;;;;;;;;;4996745;28;20184;-46
2021/07/04 08:42:29;;;;;;;5.22;4.65;;;;;;;;;;4998065;28;20855;-46
2021/07/04 08:44:56;;;;;;;7.85;4.53;;;;;;;;;;5008503;28;20262;-46
2021/07/04 08:47:23;;;;;;;6.15;5.05;;;;;;;;;;5004820;28;20176;-45
2021/07/04 08:49:49;;;;;;;5.65;4.25;;;;;;;;;;4999998;28;20568;-46
2021/07/04 08:52:16;;;;;;;5.15;4.50;;;;;;;;;;5010331;28;20188;-46
2021/07/04 08:54:42;;;;;;;4.82;4.35;;;;;;;;;;5012649;28;20443;-46
2021/07/04 08:57:11;;;;;;;7.40;4.55;;;;;;;;;;5006519;28;20201;-46
2021/07/04 08:59:38;;;;;;;5.35;4.82;;;;;;;;;;5000056;28;20164;-46
2021/07/04 09:02:04;;;;;;;5.10;4.38;;;;;;;;;;5005609;28;20185;-46
2021/07/04 09:04:30;;;;;;;3.80;3.50;;;;;;;;;;5012996;28;20199;-46
2021/07/04 09:06:56;;;;;;;5.18;4.63;;;;;;;;;;5012680;28;20172;-46
2021/07/04 09:09:28;;;;;;;4.97;4.40;;;;;;;;;;5001840;28;20188;-46
2021/07/04 09:12:10;;;;;;;5.30;4.80;;;;;;;;;;5000907;28;20181;-46
2021/07/04 09:14:37;;;;;;;7.00;5.05;;;;;;;;;;5017008;28;20440;-46
2021/07/04 09:17:04;;;;;;;5.50;5.00;;;;;;;;;;5008339;28;20552;-46
2021/07/04 09:19:30;;;;;;;5.68;5.13;;;;;;;;;;5004997;28;20496;-46
2021/07/04 09:22:01;;;;;;;4.75;4.35;;;;;;;;;;5012731;28;20418;-46
2021/07/04 09:24:32;;;;;;;5.40;4.80;;;;;;;;;;5018473;28;20247;-46
2021/07/04 09:26:58;;;;;;;5.10;4.65;;;;;;;;;;5015678;28;20173;-46
2021/07/04 09:29:39;;;;;;;6.20;4.88;;;;;;;;;;5008785;28;20184;-46
2021/07/04 09:32:14;;;;;;;9.85;6.13;;;;;;;;;;5014953;28;20563;-46
2021/07/04 09:34:40;;;;;;;6.65;4.88;;;;;;;;;;5003403;28;20189;-46
2021/07/04 09:37:06;;;;;;;6.03;4.72;;;;;;;;;;5008326;28;20204;-46
2021/07/04 09:39:32;;;;;;;6.10;5.50;;;;;;;;;;5016693;28;20299;-46
2021/07/04 09:42:09;;;;;;;6.63;5.03;;;;;;;;;;4998159;28;20184;-46
2021/07/04 09:44:36;;;;;;;5.30;4.80;;;;;;;;;;4998224;28;20256;-46
2021/07/04 09:47:12;;;;;;;5.20;4.70;;;;;;;;;;5015977;28;20279;-46
2021/07/04 09:49:39;;;;;;;5.80;4.95;;;;;;;;;;5003373;28;20198;-46
2021/07/04 09:52:12;;;;;;;8.13;4.95;;;;;;;;;;5005310;28;20181;-46
2021/07/04 09:54:38;;;;;;;6.90;4.78;;;;;;;;;;4997188;28;20284;-46
2021/07/04 09:57:06;;;;;;;5.72;4.80;;;;;;;;;;5015721;28;20260;-46
2021/07/04 09:59:32;;;;;;;7.75;5.22;;;;;;;;;;4999231;28;20467;-46
2021/07/04 10:01:58;;;;;;;4.80;4.40;;;;;;;;;;5010313;28;20193;-46
2021/07/04 10:04:38;;;;;;;5.22;4.68;;;;;;;;;;5006540;28;20200;-46
2021/07/04 10:07:05;;;;;;;4.57;4.18;;;;;;;;;;4997311;28;20165;-46
2021/07/04 10:09:31;;;;;;;6.03;4.18;;;;;;;;;;4998141;28;20253;-46
2021/07/04 10:11:58;;;;;;;5.13;4.63;;;;;;;;;;5010879;28;20168;-46
2021/07/04 10:14:25;;;;;;;6.10;3.92;;;;;;;;;;5016815;28;20710;-46
2021/07/04 10:16:51;;;;;;;6.55;4.25;;;;;;;;;;5002856;28;20204;-46
2021/07/04 10:19:19;;;;;;;6.13;4.30;;;;;;;;;;4999959;28;20170;-46
2021/07/04 10:21:46;;;;;;;5.20;4.70;;;;;;;;;;5006252;28;20243;-46
2021/07/04 10:24:12;;;;;;;4.40;4.00;;;;;;;;;;5002787;28;20177;-46
2021/07/04 10:26:40;;;;;;;5.50;4.20;;;;;;;;;;5033951;28;20561;-46
2021/07/04 10:29:07;;;;;;;5.10;4.60;;;;;;;;;;5029633;28;20184;-46
2021/07/04 10:31:34;;;;;;;5.45;4.88;;;;;;;;;;5000579;28;20204;-46
2021/07/04 10:34:10;;;;;;;4.78;4.30;;;;;;;;;;4998675;28;20213;-45
2021/07/04 10:36:54;;;;;;;4.95;4.55;;;;;;;;;;5013360;28;20245;-46
2021/07/04 10:39:20;;;;;;;5.13;4.63;;;;;;;;;;5036794;28;20187;-46
2021/07/04 10:41:55;;;;;;;4.97;4.15;;;;;;;;;;5019687;28;20177;-46
2021/07/04 10:44:35;;;;;;;4.80;4.40;;;;;;;;;;5015280;28;20271;-46
2021/07/04 10:47:03;;;;;;;4.38;4.00;;;;;;;;;;5015449;28;20172;-46
2021/07/04 10:49:52;;;;;;;4.57;4.18;;;;;;;;;;5011438;28;20445;-46
2021/07/04 10:52:24;;;;;;;4.38;4.00;;;;;;;;;;4997985;28;20199;-46
2021/07/04 10:54:51;;;;;;;4.68;4.00;;;;;;;;;;5010225;28;20235;-46
2021/07/04 10:57:37;;;;;;;4.32;3.95;;;;;;;;;;5015839;28;20204;-46
2021/07/04 11:00:03;;;;;;;6.07;4.20;;;;;;;;;;5016744;28;20235;-46
2021/07/04 11:02:39;;;;;;;4.82;4.32;;;;;;;;;;5010744;28;20196;-46
2021/07/04 11:05:06;;;;;;;4.88;4.38;;;;;;;;;;5004950;28;20193;-46
2021/07/04 11:07:51;;;;;;;4.50;4.10;;;;;;;;;;4996103;28;20185;-46
2021/07/04 11:10:18;;;;;;;4.60;4.20;;;;;;;;;;4996729;28;20448;-46
2021/07/04 11:12:44;;;;;;;4.80;4.40;;;;;;;;;;5015907;28;20187;-46
2021/07/04 11:15:13;;;;;;;4.97;4.47;;;;;;;;;;5015717;28;20207;-46
2021/07/04 11:18:12;;;;;;;4.75;4.25;;;;;;;;;;5004298;28;20204;-46
2021/07/04 11:20:42;;;;;;;5.28;4.20;;;;;;;;;;4987086;28;20327;-46
2021/07/04 11:23:20;;;;;;;4.13;3.72;;;;;;;;;;4996627;28;20545;-46
2021/07/04 11:25:49;;;;;;;4.47;4.15;;;;;;;;;;5013431;28;20798;-46
2021/07/04 11:28:18;;;;;;;4.40;4.10;;;;;;;;;;5016138;28;20169;-46
2021/07/04 11:30:50;;;;;;;4.75;4.35;;;;;;;;;;4996789;28;20641;-46
2021/07/04 11:33:28;;;;;;;4.30;3.97;;;;;;;;;;4995449;28;20188;-46
2021/07/04 11:35:56;;;;;;;5.18;4.68;;;;;;;;;;5003612;28;20188;-46
2021/07/04 11:38:23;;;;;;;4.75;4.35;;;;;;;;;;5015132;28;20212;-46
2021/07/04 11:40:49;;;;;;;6.47;4.28;;;;;;;;;;5015686;28;20509;-45
2021/07/04 11:43:17;;;;;;;5.18;4.78;;;;;;;;;;5015080;28;20252;-46
2021/07/04 11:45:50;;;;;;;4.82;4.38;;;;;;;;;;5001878;28;20188;-46
2021/07/04 11:48:17;;;;;;;4.75;4.35;;;;;;;;;;5012065;28;20180;-46
2021/07/04 11:50:47;;;;;;;5.40;4.90;;;;;;;;;;5007563;28;20180;-46
2021/07/04 11:53:20;;;;;;;5.60;4.13;;;;;;;;;;5071515;28;20626;-46
2021/07/04 11:55:58;;;;;;;6.45;4.93;;;;;;;;;;5055936;28;20182;-48
2021/07/04 11:58:25;;;;;;;5.78;5.03;;;;;;;;;;5071104;28;20737;-48
2021/07/04 12:00:51;;;;;;;7.78;5.70;;;;;;;;;;5071975;28;20205;-48
2021/07/04 12:03:22;;;;;;;5.35;4.85;;;;;;;;;;5071766;28;20197;-48
2021/07/04 12:05:48;;;;;;;5.60;4.90;;;;;;;;;;5070701;28;20332;-48
2021/07/04 12:08:14;;;;;;;5.32;4.85;;;;;;;;;;5071507;28;20620;-48
2021/07/04 12:10:53;;;;;;;4.70;4.20;;;;;;;;;;5071542;28;20190;-48
2021/07/04 12:13:19;;;;;;;5.38;4.80;;;;;;;;;;5071845;28;20175;-48
2021/07/04 12:15:50;;;;;;;6.60;4.82;;;;;;;;;;5071099;28;20449;-48
2021/07/04 12:18:18;;;;;;;4.88;4.38;;;;;;;;;;5070668;28;20437;-48
2021/07/04 12:20:51;;;;;;;5.47;4.72;;;;;;;;;;5071239;28;20175;-48
2021/07/04 12:23:18;;;;;;;6.68;4.47;;;;;;;;;;5070939;28;20183;-48
2021/07/04 12:25:44;;;;;;;5.43;4.65;;;;;;;;;;5071444;28;20182;-48
2021/07/04 12:28:11;;;;;;;5.18;4.68;;;;;;;;;;5071475;28;20163;-48
2021/07/04 12:30:44;;;;;;;6.35;4.80;;;;;;;;;;5071162;28;20194;-48
2021/07/04 12:33:27;;;;;;;5.25;4.75;;;;;;;;;;5070865;28;20319;-48
2021/07/04 12:36:06;;;;;;;5.22;4.72;;;;;;;;;;5070469;28;20178;-48
2021/07/04 12:38:37;;;;;;;5.18;4.60;;;;;;;;;;5070725;28;20178;-48
2021/07/04 12:41:03;;;;;;;5.00;4.50;;;;;;;;;;5070467;28;20175;-48
2021/07/04 12:43:36;;;;;;;6.10;4.35;;;;;;;;;;5071179;28;20175;-48
2021/07/04 12:46:03;;;;;;;4.50;4.10;;;;;;;;;;5067253;28;20190;-48
2021/07/04 12:48:31;;;;;;;5.10;4.20;;;;;;;;;;5070690;28;20182;-48
2021/07/04 12:50:59;;;;;;;4.35;3.85;;;;;;;;;;5067724;28;20189;-48
2021/07/04 12:53:39;;;;;;;4.32;3.92;;;;;;;;;;5048280;28;20508;-48
2021/07/04 12:56:22;;;;;;;5.05;4.55;;;;;;;;;;5048797;28;20179;-48
2021/07/04 12:58:55;;;;;;;5.30;4.13;;;;;;;;;;5048960;28;20262;-48
2021/07/04 13:01:22;;;;;;;4.07;3.78;;;;;;;;;;5034440;28;20194;-48
2021/07/04 13:03:51;;;;;;;4.95;4.20;;;;;;;;;;5032192;28;20186;-48
2021/07/04 13:06:32;;;;;;;4.22;3.83;;;;;;;;;;5034874;28;20578;-48
2021/07/04 13:08:59;;;;;;;4.88;3.83;;;;;;;;;;5036683;28;20191;-48
2021/07/04 13:11:25;;;;;;;4.40;4.03;;;;;;;;;;5028475;28;20200;-48
2021/07/04 13:13:59;;;;;;;4.40;4.00;;;;;;;;;;5032746;28;20187;-48
2021/07/04 13:16:25;;;;;;;3.97;3.65;;;;;;;;;;5036403;28;20202;-48
2021/07/04 13:18:51;;;;;;;3.95;3.60;;;;;;;;;;5036569;28;20237;-48
2021/07/04 13:21:26;;;;;;;3.85;3.55;;;;;;;;;;5036935;28;20702;-48
2021/07/04 13:24:12;;;;;;;3.72;3.42;;;;;;;;;;5023616;28;20610;-48
2021/07/04 13:26:38;;;;;;;4.30;3.80;;;;;;;;;;5016645;28;20176;-48
2021/07/04 13:29:18;;;;;;;4.30;3.75;;;;;;;;;;5016666;28;20172;-48
2021/07/04 13:31:44;;;;;;;4.00;3.70;;;;;;;;;;5021608;28;20522;-48
2021/07/04 13:34:20;;;;;;;4.25;3.47;;;;;;;;;;5036454;28;20608;-48
2021/07/04 13:36:53;;;;;;;4.28;3.88;;;;;;;;;;5025521;28;20250;-48
2021/07/04 13:39:19;;;;;;;5.13;3.50;;;;;;;;;;5030690;28;20269;-48
2021/07/04 13:41:45;;;;;;;4.47;3.70;;;;;;;;;;5033266;28;20274;-48
2021/07/04 13:44:11;;;;;;;4.43;4.05;;;;;;;;;;5016890;28;20172;-48
2021/07/04 13:46:37;;;;;;;4.25;3.83;;;;;;;;;;5030038;28;20194;-48
2021/07/04 13:49:03;;;;;;;4.05;3.75;;;;;;;;;;5035939;28;20188;-48
2021/07/04 13:51:29;;;;;;;4.68;4.28;;;;;;;;;;5035376;28;20231;-48
2021/07/04 13:53:56;;;;;;;4.80;3.83;;;;;;;;;;5036046;28;20257;-48
2021/07/04 13:56:22;;;;;;;5.32;4.20;;;;;;;;;;5034654;28;20180;-48
2021/07/04 13:58:48;;;;;;;5.15;4.20;;;;;;;;;;5036405;28;20443;-48
2021/07/04 14:01:14;;;;;;;4.90;4.38;;;;;;;;;;5035848;28;20183;-48
2021/07/04 14:03:39;;;;;;;4.38;4.00;;;;;;;;;;5035484;28;20555;-48
2021/07/04 14:06:05;;;;;;;5.40;4.90;;;;;;;;;;5035133;28;20179;-48
2021/07/04 14:08:31;;;;;;;4.45;3.80;;;;;;;;;;5035736;28;20251;-48
2021/07/04 14:10:57;;;;;;;4.47;4.07;;;;;;;;;;5031842;28;20211;-48
2021/07/04 14:13:24;;;;;;;4.82;4.43;;;;;;;;;;5036198;28;20423;-48
2021/07/04 14:15:50;;;;;;;4.72;4.32;;;;;;;;;;5034187;28;20558;-48
2021/07/04 14:18:16;;;;;;;4.70;4.30;;;;;;;;;;5035975;28;20164;-48
2021/07/04 14:20:42;;;;;;;4.78;4.30;;;;;;;;;;5035480;28;20179;-48
2021/07/04 14:23:09;;;;;;;4.40;3.95;;;;;;;;;;5035727;28;20175;-48
2021/07/04 14:25:35;;;;;;;4.25;3.95;;;;;;;;;;5034891;28;20179;-48
2021/07/04 14:28:02;;;;;;;4.45;4.10;;;;;;;;;;5034669;28;20180;-48
2021/07/04 14:30:28;;;;;;;4.60;4.20;;;;;;;;;;5035451;28;20176;-48
2021/07/04 14:32:55;;;;;;;4.53;4.13;;;;;;;;;;5035606;28;20235;-48
2021/07/04 14:35:22;;;;;;;4.20;3.80;;;;;;;;;;5035207;28;20184;-48
2021/07/04 14:37:49;;;;;;;4.18;3.88;;;;;;;;;;5034633;28;20176;-48
2021/07/04 14:40:16;;;;;;;4.85;4.05;;;;;;;;;;5035541;28;20183;-48
2021/07/04 14:42:42;;;;;;;5.28;4.35;;;;;;;;;;5041030;28;20506;-48
2021/07/04 14:45:08;;;;;;;4.45;4.03;;;;;;;;;;5023979;28;20172;-48